createdAt,value
2023-01-29T00:02:13.752Z,12.77
2023-01-29T00:04:42.130Z,11.50
2023-01-29T00:07:10.565Z,11.23
2023-01-29T00:09:38.935Z,12.40
2023-01-29T00:12:08.958Z,11.67
2023-01-29T00:14:37.478Z,12.23
2023-01-29T00:17:05.786Z,11.97
2023-01-29T00:19:34.300Z,13.10
2023-01-29T00:22:02.419Z,14.10
2023-01-29T00:24:30.918Z,12.20
2023-01-29T00:26:59.435Z,12.10
2023-01-29T00:29:27.774Z,15.83
2023-01-29T00:31:56.352Z,14.10
2023-01-29T00:34:25.187Z,13.50
2023-01-29T00:36:53.137Z,13.33
2023-01-29T00:39:27.733Z,12.90
2023-01-29T00:42:10.593Z,14.60
2023-01-29T00:44:56.482Z,13.33
2023-01-29T00:47:33.964Z,12.37
2023-01-29T00:50:03.789Z,12.13
2023-01-29T00:52:32.173Z,13.77
2023-01-29T00:55:00.907Z,13.67
2023-01-29T00:57:30.333Z,13.13
2023-01-29T00:59:58.674Z,11.03
2023-01-29T01:02:45.353Z,12.03
2023-01-29T01:05:16.415Z,12.90
2023-01-29T01:07:45.897Z,14.37
2023-01-29T01:10:21.656Z,9.33
2023-01-29T01:12:50.770Z,11.43
2023-01-29T01:15:19.680Z,9.33
2023-01-29T01:17:49.572Z,11.00
2023-01-29T01:22:45.486Z,10.63
2023-01-29T01:25:14.077Z,11.53
2023-01-29T01:27:42.585Z,13.37
2023-01-29T01:30:12.580Z,11.30
2023-01-29T01:35:08.674Z,10.63
2023-01-29T01:37:38.574Z,9.37
2023-01-29T01:40:09.310Z,9.53
2023-01-29T01:42:37.909Z,14.43
2023-01-29T01:45:07.877Z,10.43
2023-01-29T01:50:06.574Z,10.23
2023-01-29T01:52:35.869Z,11.43
2023-01-29T01:55:04.856Z,10.53
2023-01-29T01:57:33.395Z,12.00
2023-01-29T02:00:04.821Z,9.83
2023-01-29T02:02:51.100Z,12.60
2023-01-29T02:05:37.953Z,16.43
2023-01-29T02:08:25.244Z,13.47
2023-01-29T02:10:53.611Z,11.00
2023-01-29T02:13:22.930Z,11.77
2023-01-29T02:15:50.780Z,10.97
2023-01-29T02:18:20.546Z,12.73
2023-01-29T02:20:50.914Z,12.23
2023-01-29T02:23:30.015Z,10.60
2023-01-29T02:26:03.119Z,12.47
2023-01-29T02:28:45.428Z,11.57
2023-01-29T02:33:48.539Z,11.63
2023-01-29T02:36:30.208Z,12.57
2023-01-29T02:39:08.880Z,11.13
2023-01-29T02:41:38.159Z,10.43
2023-01-29T02:44:07.854Z,13.87
2023-01-29T02:46:44.020Z,13.20
2023-01-29T02:51:50.876Z,11.12
2023-01-29T02:54:23.038Z,10.20
2023-01-29T02:57:01.676Z,14.83
2023-01-29T02:59:31.615Z,14.17
2023-01-29T03:02:01.544Z,12.53
2023-01-29T03:04:31.550Z,13.07
2023-01-29T03:07:00.846Z,12.07
2023-01-29T03:09:30.194Z,11.97
2023-01-29T03:12:00.129Z,12.03
2023-01-29T03:16:54.887Z,13.70
2023-01-29T03:19:34.543Z,11.87
2023-01-29T03:22:04.795Z,12.60
2023-01-29T03:24:55.961Z,12.33
2023-01-29T03:27:43.499Z,13.07
2023-01-29T03:30:31.879Z,12.97
2023-01-29T03:33:01.423Z,11.67
2023-01-29T03:35:35.964Z,11.80
2023-01-29T03:38:04.823Z,10.60
2023-01-29T03:40:34.812Z,12.23
2023-01-29T03:45:34.881Z,12.15
2023-01-29T03:48:08.454Z,8.93
2023-01-29T03:50:38.751Z,8.37
2023-01-29T03:53:11.374Z,8.60
2023-01-29T03:55:56.013Z,10.87
2023-01-29T03:58:25.389Z,8.93
2023-01-29T04:00:55.342Z,10.53
2023-01-29T04:05:55.785Z,8.90
2023-01-29T04:08:28.724Z,9.87
2023-01-29T04:10:58.391Z,10.83
2023-01-29T04:13:27.530Z,9.20
2023-01-29T04:15:58.751Z,9.20
2023-01-29T04:18:27.107Z,9.33
2023-01-29T04:20:55.906Z,10.70
2023-01-29T04:23:28.116Z,8.80
2023-01-29T04:26:14.216Z,10.30
2023-01-29T04:28:47.095Z,9.20
2023-01-29T04:31:16.142Z,9.27
2023-01-29T04:33:45.447Z,8.53
2023-01-29T04:36:24.462Z,8.53
2023-01-29T04:38:57.335Z,11.37
2023-01-29T04:41:27.213Z,9.70
2023-01-29T04:44:00.528Z,9.30
2023-01-29T04:46:30.312Z,9.10
2023-01-29T04:49:14.747Z,10.63
2023-01-29T04:51:59.847Z,10.30
2023-01-29T04:54:29.984Z,9.30
2023-01-29T04:57:12.179Z,8.03
2023-01-29T04:59:42.180Z,9.23
2023-01-29T05:04:39.244Z,7.22
2023-01-29T05:07:08.961Z,9.03
2023-01-29T05:09:38.879Z,7.93
2023-01-29T05:14:35.059Z,8.28
2023-01-29T05:17:05.037Z,9.77
2023-01-29T05:19:32.875Z,9.03
2023-01-29T05:22:01.280Z,9.67
2023-01-29T05:24:29.888Z,10.30
2023-01-29T05:27:16.381Z,7.47
2023-01-29T05:29:46.278Z,6.00
2023-01-29T05:32:15.013Z,8.57
2023-01-29T05:34:43.454Z,9.90
2023-01-29T05:37:11.773Z,9.53
2023-01-29T05:39:40.149Z,10.90
2023-01-29T05:42:08.081Z,10.00
2023-01-29T05:44:36.353Z,8.80
2023-01-29T05:47:04.761Z,11.87
2023-01-29T05:49:33.105Z,9.47
2023-01-29T05:52:01.322Z,11.37
2023-01-29T05:54:29.173Z,10.47
2023-01-29T05:56:57.430Z,11.13
2023-01-29T05:59:25.971Z,10.10
2023-01-29T06:01:54.574Z,8.50
2023-01-29T06:04:23.275Z,10.43
2023-01-29T06:06:51.663Z,12.03
2023-01-29T06:09:20.068Z,12.27
2023-01-29T06:11:48.413Z,12.13
2023-01-29T06:14:16.816Z,12.00
2023-01-29T06:16:45.170Z,9.00
2023-01-29T06:19:13.758Z,8.87
2023-01-29T06:21:42.147Z,12.97
2023-01-29T06:24:10.693Z,10.50
2023-01-29T06:26:38.504Z,12.50
2023-01-29T06:29:07.036Z,10.83
2023-01-29T06:31:39.661Z,11.97
2023-01-29T06:36:32.503Z,10.93
2023-01-29T06:39:00.807Z,10.50
2023-01-29T06:41:29.088Z,11.10
2023-01-29T06:43:57.557Z,12.03
2023-01-29T06:46:25.926Z,12.83
2023-01-29T06:48:53.703Z,14.03
2023-01-29T06:51:23.610Z,12.33
2023-01-29T06:53:52.203Z,12.13
2023-01-29T06:56:20.577Z,12.33
2023-01-29T06:58:49.193Z,11.70
2023-01-29T07:01:34.595Z,11.80
2023-01-29T07:03:49.095Z,11.73
2023-01-29T07:06:17.611Z,13.50
2023-01-29T07:08:45.644Z,16.53
2023-01-29T07:11:13.658Z,14.97
2023-01-29T07:13:42.201Z,16.90
2023-01-29T07:16:10.871Z,11.93
2023-01-29T07:18:39.354Z,13.93
2023-01-29T07:21:07.775Z,13.90
2023-01-29T07:23:36.869Z,14.23
2023-01-29T07:26:05.991Z,14.43
2023-01-29T07:28:35.791Z,14.93
2023-01-29T07:31:04.413Z,14.53
2023-01-29T07:33:33.032Z,12.40
2023-01-29T07:36:00.879Z,13.90
2023-01-29T07:38:29.358Z,13.50
2023-01-29T07:40:57.230Z,15.27
2023-01-29T07:43:28.382Z,17.17
2023-01-29T07:45:57.118Z,12.80
2023-01-29T07:48:25.153Z,15.37
2023-01-29T07:50:57.337Z,13.73
2023-01-29T07:53:25.906Z,16.50
2023-01-29T07:55:54.088Z,12.80
2023-01-29T07:58:22.533Z,17.17
2023-01-29T08:00:50.942Z,15.90
2023-01-29T08:03:21.185Z,14.57
2023-01-29T08:05:49.458Z,18.63
2023-01-29T08:08:18.015Z,13.83
2023-01-29T08:10:46.380Z,15.27
2023-01-29T08:13:14.165Z,15.37
2023-01-29T08:15:47.957Z,12.40
2023-01-29T08:18:16.639Z,12.03
2023-01-29T08:20:44.477Z,12.77
2023-01-29T08:23:17.350Z,13.20
2023-01-29T08:25:45.862Z,12.13
2023-01-29T08:28:14.584Z,13.20
2023-01-29T08:30:44.802Z,20.37
2023-01-29T08:33:13.733Z,15.17
2023-01-29T08:35:41.576Z,16.47
2023-01-29T08:38:11.264Z,13.47
2023-01-29T08:40:39.211Z,13.47
2023-01-29T08:43:09.314Z,13.57
2023-01-29T08:45:38.708Z,13.87
2023-01-29T08:48:08.118Z,12.73
2023-01-29T08:50:36.796Z,15.27
2023-01-29T08:53:07.558Z,15.13
2023-01-29T08:55:39.968Z,15.00
2023-01-29T08:58:09.039Z,14.93
2023-01-29T09:00:36.902Z,16.17
2023-01-29T09:03:07.336Z,14.30
2023-01-29T09:05:36.334Z,17.03
2023-01-29T09:08:04.599Z,16.07
2023-01-29T09:10:32.619Z,14.40
2023-01-29T09:13:01.165Z,13.97
2023-01-29T09:15:29.191Z,11.03
2023-01-29T09:17:57.755Z,14.50
2023-01-29T09:20:26.095Z,14.23
2023-01-29T09:22:55.514Z,15.77
2023-01-29T09:25:23.968Z,16.30
2023-01-29T09:27:52.524Z,15.73
2023-01-29T09:30:21.332Z,14.73
2023-01-29T09:32:53.531Z,15.87
2023-01-29T09:35:20.349Z,12.70
2023-01-29T09:37:49.960Z,14.47
2023-01-29T09:40:29.300Z,15.80
2023-01-29T09:43:15.894Z,19.53
2023-01-29T09:45:45.972Z,15.90
2023-01-29T09:48:14.137Z,15.50
2023-01-29T09:50:44.055Z,15.67
2023-01-29T09:55:41.602Z,12.85
2023-01-29T09:58:14.564Z,15.30
2023-01-29T10:00:44.443Z,15.17
2023-01-29T10:05:53.270Z,15.48
2023-01-29T10:08:23.672Z,15.60
2023-01-29T10:10:53.158Z,18.77
2023-01-29T10:13:28.393Z,16.00
2023-01-29T10:16:16.383Z,17.63
2023-01-29T10:19:04.311Z,18.90
2023-01-29T10:21:45.986Z,15.77
2023-01-29T10:24:30.322Z,19.60
2023-01-29T10:26:59.101Z,16.57
2023-01-29T10:29:28.877Z,15.70
2023-01-29T10:32:00.863Z,18.37
2023-01-29T10:34:30.490Z,19.03
2023-01-29T10:36:59.284Z,17.57
2023-01-29T10:39:28.378Z,16.57
2023-01-29T10:41:58.460Z,18.77
2023-01-29T10:44:40.597Z,17.10
2023-01-29T10:50:25.546Z,18.03
2023-01-29T10:53:07.989Z,14.23
2023-01-29T10:55:43.843Z,21.03
2023-01-29T10:58:15.290Z,17.27
2023-01-29T11:00:44.084Z,16.23
2023-01-29T11:03:26.335Z,14.83
2023-01-29T11:05:52.081Z,17.93
2023-01-29T11:08:22.134Z,18.33
2023-01-29T11:10:57.708Z,19.70
2023-01-29T11:13:27.798Z,19.87
2023-01-29T11:15:56.165Z,24.30
2023-01-29T11:18:23.987Z,21.73
2023-01-29T11:20:53.857Z,19.03
2023-01-29T11:25:51.018Z,18.45
2023-01-29T11:28:21.099Z,18.30
2023-01-29T11:30:50.581Z,19.17
2023-01-29T11:33:20.486Z,18.83
2023-01-29T11:35:49.143Z,17.77
2023-01-29T11:38:19.002Z,21.07
2023-01-29T11:43:15.917Z,19.00
2023-01-29T11:45:44.676Z,18.73
2023-01-29T11:48:17.536Z,19.37
2023-01-29T11:50:47.623Z,16.77
2023-01-29T11:53:20.497Z,21.10
2023-01-29T11:55:51.074Z,18.60
2023-01-29T11:58:23.398Z,19.57
2023-01-29T12:00:52.983Z,17.50
2023-01-29T12:03:25.907Z,17.00
2023-01-29T12:06:02.019Z,20.37
2023-01-29T12:10:58.964Z,21.30
2023-01-29T12:13:28.933Z,18.47
2023-01-29T12:18:30.434Z,37.63
2023-01-29T12:21:00.622Z,22.33
2023-01-29T12:25:57.019Z,16.82
2023-01-29T12:28:43.880Z,18.70
2023-01-29T12:31:31.865Z,21.07
2023-01-29T12:34:05.123Z,20.63
2023-01-29T12:36:34.567Z,24.50
2023-01-29T12:39:04.427Z,19.43
2023-01-29T12:44:05.642Z,17.05
2023-01-29T12:46:35.761Z,16.27
2023-01-29T12:49:05.869Z,17.03
2023-01-29T12:51:38.677Z,18.37
2023-01-29T12:54:11.143Z,15.93
2023-01-29T12:56:44.144Z,17.77
2023-01-29T12:59:16.956Z,17.57
2023-01-29T13:01:49.847Z,17.50
2023-01-29T13:04:21.209Z,17.83
2023-01-29T13:06:51.169Z,15.80
2023-01-29T13:09:24.001Z,17.27
2023-01-29T13:11:59.949Z,16.50
2023-01-29T13:14:36.583Z,18.87
2023-01-29T13:17:12.526Z,15.73
2023-01-29T13:19:45.809Z,17.43
2023-01-29T13:22:18.855Z,16.00
2023-01-29T13:24:58.713Z,17.77
2023-01-29T13:27:30.168Z,17.57
2023-01-29T13:29:58.698Z,20.37
2023-01-29T13:32:31.422Z,17.67
2023-01-29T13:35:02.175Z,18.33
2023-01-29T13:37:38.730Z,20.50
2023-01-29T13:40:08.379Z,20.67
2023-01-29T13:42:41.123Z,19.23
2023-01-29T13:45:10.068Z,14.10
2023-01-29T13:47:40.097Z,16.23
2023-01-29T13:50:10.059Z,15.53
2023-01-29T13:57:49.921Z,11.73
2023-01-29T14:00:27.631Z,13.57
2023-01-29T14:02:57.437Z,13.77
2023-01-29T14:05:34.717Z,16.57
2023-01-29T14:08:04.770Z,17.37
2023-01-29T14:10:37.192Z,17.63
2023-01-29T14:13:08.132Z,15.73
2023-01-29T14:15:37.786Z,15.17
2023-01-29T14:18:07.270Z,18.00
2023-01-29T14:20:53.885Z,17.63
2023-01-29T14:23:43.489Z,19.80
2023-01-29T14:26:25.735Z,16.17
2023-01-29T14:31:41.382Z,15.45
2023-01-29T14:34:23.567Z,18.53
2023-01-29T14:36:55.064Z,17.77
2023-01-29T14:39:24.488Z,22.00
2023-01-29T14:41:53.314Z,16.43
2023-01-29T14:44:41.662Z,20.23
2023-01-29T14:47:11.675Z,21.53
2023-01-29T14:49:59.797Z,20.10
2023-01-29T14:52:29.740Z,20.67
2023-01-29T14:55:00.021Z,24.23
2023-01-29T14:57:29.429Z,22.20
2023-01-29T14:59:59.887Z,20.10
2023-01-29T15:02:31.464Z,21.80
2023-01-29T15:05:01.140Z,22.10
2023-01-29T15:07:40.084Z,22.37
2023-01-29T15:10:23.248Z,27.90
2023-01-29T15:12:44.995Z,26.77
2023-01-29T15:15:23.720Z,21.83
2023-01-29T15:18:08.931Z,25.83
2023-01-29T15:20:38.425Z,23.00
2023-01-29T15:23:08.544Z,21.77
2023-01-29T15:25:40.918Z,19.90
2023-01-29T15:28:11.139Z,21.47
2023-01-29T15:30:39.734Z,20.70
2023-01-29T15:33:11.200Z,23.63
2023-01-29T15:35:40.888Z,20.13
2023-01-29T15:38:10.710Z,20.80
2023-01-29T15:40:39.303Z,22.63
2023-01-29T15:43:22.094Z,22.73
2023-01-29T15:45:51.456Z,23.70
2023-01-29T15:48:21.626Z,20.07
2023-01-29T15:50:51.473Z,22.00
2023-01-29T15:55:47.282Z,17.98
2023-01-29T15:58:20.009Z,20.00
2023-01-29T16:00:55.509Z,21.37
2023-01-29T16:03:25.178Z,22.73
2023-01-29T16:05:53.795Z,20.93
2023-01-29T16:08:23.315Z,23.43
2023-01-29T16:10:53.091Z,19.53
2023-01-29T16:13:23.034Z,19.13
2023-01-29T16:15:55.845Z,23.50
2023-01-29T16:18:26.100Z,21.70
2023-01-29T16:20:55.432Z,21.30
2023-01-29T16:23:25.368Z,24.30
2023-01-29T16:25:53.540Z,21.83
2023-01-29T16:28:22.398Z,19.63
2023-01-29T16:30:52.402Z,21.57
2023-01-29T16:33:22.153Z,20.20
2023-01-29T16:35:52.287Z,21.87
2023-01-29T16:38:21.889Z,19.03
2023-01-29T16:41:10.003Z,22.17
2023-01-29T16:43:42.913Z,24.63
2023-01-29T16:46:31.228Z,25.03
2023-01-29T16:49:00.159Z,19.77
2023-01-29T16:51:32.215Z,20.77
2023-01-29T16:54:01.968Z,22.30
2023-01-29T16:56:31.959Z,22.73
2023-01-29T17:01:28.891Z,21.35
2023-01-29T17:03:58.745Z,21.10
2023-01-29T17:08:55.158Z,21.27
2023-01-29T17:11:40.437Z,23.70
2023-01-29T17:14:09.236Z,20.40
2023-01-29T17:16:37.865Z,20.33
2023-01-29T17:19:17.508Z,21.30
2023-01-29T17:21:45.962Z,21.70
2023-01-29T17:24:14.941Z,20.03
2023-01-29T17:26:43.486Z,18.73
2023-01-29T17:29:15.664Z,20.03
2023-01-29T17:31:44.080Z,18.40
2023-01-29T17:34:15.231Z,17.77
2023-01-29T17:36:46.280Z,23.70
2023-01-29T17:39:19.319Z,21.40
2023-01-29T17:41:52.114Z,23.60
2023-01-29T17:44:20.695Z,18.20
2023-01-29T17:46:49.327Z,20.50
2023-01-29T17:49:25.085Z,20.60
2023-01-29T17:51:54.182Z,24.17
2023-01-29T17:54:22.854Z,21.33
2023-01-29T17:56:51.601Z,20.27
2023-01-29T17:59:23.974Z,24.07
2023-01-29T18:01:53.704Z,24.43
2023-01-29T18:04:22.249Z,23.67
2023-01-29T18:06:51.740Z,22.20
2023-01-29T18:09:21.162Z,23.17
2023-01-29T18:11:49.887Z,26.33
2023-01-29T18:14:19.549Z,24.83
2023-01-29T18:16:49.094Z,19.80
2023-01-29T18:19:22.370Z,20.53
2023-01-29T18:21:51.249Z,20.93
2023-01-29T18:24:21.024Z,19.00
2023-01-29T18:26:49.913Z,27.63
2023-01-29T18:29:18.403Z,24.70
2023-01-29T18:31:48.502Z,22.33
2023-01-29T18:34:16.787Z,36.13
2023-01-29T18:36:46.873Z,26.53
2023-01-29T18:39:16.236Z,29.77
2023-01-29T18:41:44.866Z,28.10
2023-01-29T18:44:13.331Z,26.80
2023-01-29T18:46:41.813Z,23.43
2023-01-29T18:49:11.245Z,25.27
2023-01-29T18:51:39.699Z,21.93
2023-01-29T18:54:07.671Z,27.77
2023-01-29T18:56:35.935Z,25.57
2023-01-29T18:59:05.703Z,28.30
2023-01-29T19:01:34.443Z,29.60
2023-01-29T19:04:02.955Z,23.67
2023-01-29T19:06:32.824Z,29.67
2023-01-29T19:09:01.319Z,27.30
2023-01-29T19:11:29.801Z,24.73
2023-01-29T19:13:58.355Z,25.43
2023-01-29T19:16:27.797Z,26.50
2023-01-29T19:18:59.180Z,28.53
2023-01-29T19:21:27.586Z,21.63
2023-01-29T19:23:55.887Z,23.17
2023-01-29T19:26:23.927Z,31.73
2023-01-29T19:28:52.938Z,29.07
2023-01-29T19:31:21.461Z,26.40
2023-01-29T19:33:49.991Z,28.43
2023-01-29T19:36:18.996Z,28.73
2023-01-29T19:38:48.019Z,31.63
2023-01-29T19:41:17.328Z,31.17
2023-01-29T19:43:47.548Z,30.30
2023-01-29T19:46:16.300Z,29.87
2023-01-29T19:48:44.483Z,25.20
2023-01-29T19:51:13.611Z,30.13
2023-01-29T19:53:44.444Z,28.37
2023-01-29T19:56:14.766Z,33.37
2023-01-29T19:58:43.445Z,34.73
2023-01-29T20:01:19.828Z,33.17
2023-01-29T20:03:49.457Z,32.77
2023-01-29T20:06:19.435Z,28.87
2023-01-29T20:08:47.692Z,29.20
2023-01-29T20:11:16.672Z,26.43
2023-01-29T20:13:45.165Z,25.30
2023-01-29T20:16:13.914Z,28.47
2023-01-29T20:18:42.412Z,30.53
2023-01-29T20:21:12.423Z,24.97
2023-01-29T20:23:41.365Z,26.40
2023-01-29T20:26:10.771Z,26.47
2023-01-29T20:28:39.192Z,27.47
2023-01-29T20:31:08.296Z,30.27
2023-01-29T20:33:39.350Z,24.97
2023-01-29T20:36:07.518Z,26.70
2023-01-29T20:38:35.906Z,25.00
2023-01-29T20:41:08.266Z,30.17
2023-01-29T20:43:36.855Z,27.47
2023-01-29T20:46:05.281Z,27.30
2023-01-29T20:48:33.863Z,30.07
2023-01-29T20:51:09.323Z,28.67
2023-01-29T20:53:37.914Z,27.27
2023-01-29T20:56:06.751Z,32.03
2023-01-29T20:58:35.345Z,28.43
2023-01-29T21:01:05.358Z,30.10
2023-01-29T21:06:00.870Z,25.50
2023-01-29T21:08:29.350Z,28.93
2023-01-29T21:10:57.362Z,24.90
2023-01-29T21:13:26.068Z,28.43
2023-01-29T21:15:55.156Z,32.70
2023-01-29T21:18:24.332Z,29.50
2023-01-29T21:20:52.554Z,30.20
2023-01-29T21:23:20.955Z,30.40
2023-01-29T21:25:49.604Z,32.23
2023-01-29T21:28:18.168Z,33.00
2023-01-29T21:30:47.409Z,29.83
2023-01-29T21:33:15.381Z,32.93
2023-01-29T21:35:43.260Z,29.83
2023-01-29T21:38:11.671Z,31.77
2023-01-29T21:40:40.049Z,27.07
2023-01-29T21:43:14.333Z,31.83
2023-01-29T21:45:42.880Z,29.30
2023-01-29T21:48:11.888Z,31.87
2023-01-29T21:50:40.416Z,30.27
2023-01-29T21:53:08.581Z,33.17
2023-01-29T21:55:37.170Z,27.10
2023-01-29T21:58:05.666Z,30.20
2023-01-29T22:00:34.142Z,28.43
2023-01-29T22:03:02.778Z,26.53
2023-01-29T22:05:30.712Z,27.20
2023-01-29T22:07:58.535Z,28.00
2023-01-29T22:10:28.025Z,25.70
2023-01-29T22:12:56.635Z,32.30
2023-01-29T22:15:24.460Z,27.77
2023-01-29T22:17:53.003Z,26.73
2023-01-29T22:20:21.535Z,27.50
2023-01-29T22:22:50.034Z,27.40
2023-01-29T22:25:20.221Z,30.80
2023-01-29T22:27:48.619Z,31.77
2023-01-29T22:30:16.947Z,30.13
2023-01-29T22:32:45.273Z,28.90
2023-01-29T22:35:13.890Z,28.27
2023-01-29T22:37:42.504Z,27.47
2023-01-29T22:40:11.399Z,24.83
2023-01-29T22:42:39.959Z,28.37
2023-01-29T22:45:08.688Z,23.93
2023-01-29T22:47:37.221Z,28.13
2023-01-29T22:50:06.044Z,27.20
2023-01-29T22:52:41.643Z,31.30
2023-01-29T22:55:11.642Z,29.50
2023-01-29T23:00:08.763Z,27.62
2023-01-29T23:02:37.372Z,27.67
2023-01-29T23:05:06.258Z,25.97
2023-01-29T23:07:34.176Z,30.13
2023-01-29T23:10:02.687Z,26.00
2023-01-29T23:12:30.622Z,28.07
2023-01-29T23:14:59.657Z,28.17
2023-01-29T23:17:27.649Z,28.33
2023-01-29T23:19:56.085Z,26.53
2023-01-29T23:22:24.578Z,27.27
2023-01-29T23:24:53.635Z,23.37
2023-01-29T23:27:22.169Z,27.20
2023-01-29T23:29:50.655Z,31.90
2023-01-29T23:32:20.316Z,29.27
2023-01-29T23:34:48.691Z,29.27
2023-01-29T23:37:17.189Z,24.20
2023-01-29T23:39:45.571Z,25.07
2023-01-29T23:42:14.025Z,18.83
2023-01-29T23:44:42.642Z,16.50
2023-01-29T23:47:10.960Z,19.33
2023-01-29T23:49:39.390Z,17.10
2023-01-29T23:52:08.483Z,20.13
2023-01-29T23:54:37.093Z,17.10
2023-01-29T23:57:05.432Z,17.40
2023-01-29T23:59:33.775Z,15.53
